Terminal Aerodrome Forecast
Issued by NWS Dodge City, KS

Home | Current Version | Previous Version | Text Only | Print | Product List | Glossary On
Versions: 1 2 3 4 5 6 7 8 9 10 11 12 13 14 15 16 17 18 19 20 21 22
000
FTUS43 KDDC 252320
TAFDDC
TAF
KDDC 252320Z 2600/2624 05008KT P6SM SCT040
     FM260800 05005KT P6SM BKN040
      TEMPO 2609/2611 4SM -TSRA OVC020CB
     FM261400 15005KT P6SM BKN090=

USA.gov is the U.S. government's official web portal to all federal, state and local government web resources and services.